Time;durP1;ratioP1;P1;durP2;ratioP2;P2;SDS_P1;SDS_P2;PMS_P1;PMS_P2;Temp;Humidity;BMP_temperature;BMP_pressure;BME280_temperature;BME280_humidity;BME280_pressure;Samples;Min_cycle;Max_cycle;Signal;HPM_P1;HPM_P2
2022/10/08 00:02:23;;;;;;;14.05;7.88;;;;;;;;;;4923052;29;20091;-87
2022/10/08 00:04:49;;;;;;;11.38;8.07;;;;;;;;;;4906612;29;20041;-88
2022/10/08 00:07:15;;;;;;;10.13;7.00;;;;;;;;;;4908420;29;20554;-87
2022/10/08 00:09:41;;;;;;;9.02;6.70;;;;;;;;;;4909476;29;20064;-87
2022/10/08 00:12:06;;;;;;;9.93;7.30;;;;;;;;;;4908699;29;20041;-86
2022/10/08 00:14:31;;;;;;;9.00;6.22;;;;;;;;;;4908336;29;20036;-88
2022/10/08 00:16:57;;;;;;;9.98;6.07;;;;;;;;;;4908450;29;20514;-88
2022/10/08 00:19:22;;;;;;;6.28;4.63;;;;;;;;;;4908821;29;20104;-87
2022/10/08 00:21:52;;;;;;;6.82;5.07;;;;;;;;;;4907239;29;20047;-87
2022/10/08 00:24:18;;;;;;;6.78;5.30;;;;;;;;;;4908015;29;20060;-87
2022/10/08 00:26:44;;;;;;;6.35;5.13;;;;;;;;;;4907936;29;20037;-87
2022/10/08 00:29:12;;;;;;;5.25;4.40;;;;;;;;;;4905646;29;20486;-87
2022/10/08 00:31:40;;;;;;;5.43;4.10;;;;;;;;;;4905537;29;20072;-86
2022/10/08 00:34:08;;;;;;;5.47;4.25;;;;;;;;;;4904997;29;20036;-86
2022/10/08 00:36:36;;;;;;;4.90;4.15;;;;;;;;;;4904301;29;20040;-87
2022/10/08 00:39:04;;;;;;;5.55;3.78;;;;;;;;;;4908290;29;20041;-87
2022/10/08 00:41:32;;;;;;;4.25;3.70;;;;;;;;;;4908227;29;20044;-87
2022/10/08 00:44:03;;;;;;;4.65;4.00;;;;;;;;;;4907644;29;20491;-86
2022/10/08 00:46:42;;;;;;;4.95;4.32;;;;;;;;;;4908158;29;20063;-87
2022/10/08 00:49:09;;;;;;;9.20;4.22;;;;;;;;;;4908270;29;20498;-87
2022/10/08 00:51:34;;;;;;;6.65;4.20;;;;;;;;;;4908350;29;20071;-87
2022/10/08 00:54:01;;;;;;;5.22;4.30;;;;;;;;;;4907358;29;20036;-87
2022/10/08 00:56:30;;;;;;;5.85;4.70;;;;;;;;;;4908254;29;20088;-87
2022/10/08 00:58:56;;;;;;;5.63;4.57;;;;;;;;;;4907276;29;20474;-88
2022/10/08 01:01:21;;;;;;;6.63;4.20;;;;;;;;;;4903604;29;20043;-88
2022/10/08 01:03:47;;;;;;;5.32;4.03;;;;;;;;;;4904399;29;20033;-88
2022/10/08 01:06:18;;;;;;;4.70;3.67;;;;;;;;;;4904645;29;20083;-86
2022/10/08 01:09:03;;;;;;;5.32;4.20;;;;;;;;;;4904299;29;20045;-86
2022/10/08 01:11:28;;;;;;;4.90;4.25;;;;;;;;;;4904422;29;20044;-88
2022/10/08 01:14:07;;;;;;;6.13;4.30;;;;;;;;;;4903912;29;20040;-88
2022/10/08 01:16:53;;;;;;;4.80;4.25;;;;;;;;;;4903187;29;20092;-87
2022/10/08 01:19:56;;;;;;;5.60;3.85;;;;;;;;;;4902287;29;20036;-87
2022/10/08 01:22:35;;;;;;;5.72;3.78;;;;;;;;;;4903533;29;20135;-87
2022/10/08 01:25:34;;;;;;;4.15;3.33;;;;;;;;;;4902595;29;20079;-88
2022/10/08 01:28:22;;;;;;;7.18;3.70;;;;;;;;;;4904440;29;20171;-87
2022/10/08 01:30:53;;;;;;;4.38;3.75;;;;;;;;;;4904495;29;20041;-88
2022/10/08 01:33:26;;;;;;;4.13;3.30;;;;;;;;;;4904268;29;20033;-87
2022/10/08 01:35:56;;;;;;;4.60;3.30;;;;;;;;;;4903826;29;20045;-87
2022/10/08 01:38:25;;;;;;;5.05;3.28;;;;;;;;;;4904418;29;20044;-87
2022/10/08 01:40:57;;;;;;;7.97;3.58;;;;;;;;;;4903863;29;20048;-87
2022/10/08 01:43:26;;;;;;;5.10;3.50;;;;;;;;;;4903176;29;20033;-87
2022/10/08 01:45:56;;;;;;;4.70;3.60;;;;;;;;;;4903319;29;20085;-87
2022/10/08 01:48:27;;;;;;;4.10;3.55;;;;;;;;;;4903671;29;20040;-88
2022/10/08 01:51:07;;;;;;;4.50;3.58;;;;;;;;;;4903430;29;20044;-87
2022/10/08 01:53:38;;;;;;;4.30;3.78;;;;;;;;;;4903631;29;20410;-87
2022/10/08 01:56:06;;;;;;;3.90;3.50;;;;;;;;;;4900489;29;20032;-87
2022/10/08 01:59:04;;;;;;;6.72;3.70;;;;;;;;;;4900848;29;20515;-87
2022/10/08 02:01:43;;;;;;;4.30;3.53;;;;;;;;;;4837912;29;20103;-87
2022/10/08 02:06:58;;;;;;;6.60;3.60;;;;;;;;;;4902732;29;20100;-87
2022/10/08 02:09:25;;;;;;;3.85;3.30;;;;;;;;;;4902988;29;20136;-87
2022/10/08 02:11:51;;;;;;;5.68;3.28;;;;;;;;;;4901733;29;20036;-87
2022/10/08 02:14:17;;;;;;;4.00;3.45;;;;;;;;;;4902266;29;20041;-87
2022/10/08 02:16:51;;;;;;;4.53;3.47;;;;;;;;;;4901865;29;20033;-87
2022/10/08 02:19:35;;;;;;;6.97;3.20;;;;;;;;;;4900470;29;20043;-87
2022/10/08 02:22:04;;;;;;;4.57;3.47;;;;;;;;;;4900255;29;20045;-87
2022/10/08 02:24:39;;;;;;;4.28;3.40;;;;;;;;;;4902175;29;20047;-87
2022/10/08 02:27:07;;;;;;;3.25;2.83;;;;;;;;;;4900423;29;20044;-87
2022/10/08 02:29:49;;;;;;;4.72;3.15;;;;;;;;;;4900570;29;20463;-87
2022/10/08 02:32:27;;;;;;;3.97;3.25;;;;;;;;;;4901082;29;20040;-86
2022/10/08 02:35:06;;;;;;;5.70;3.10;;;;;;;;;;4916645;29;20040;-86
2022/10/08 02:37:40;;;;;;;3.63;2.97;;;;;;;;;;4900954;29;20387;-85
2022/10/08 02:40:12;;;;;;;7.07;3.40;;;;;;;;;;4901594;29;20059;-86
2022/10/08 02:42:42;;;;;;;4.88;3.10;;;;;;;;;;4900519;29;20040;-86
2022/10/08 02:45:20;;;;;;;5.25;3.10;;;;;;;;;;4902418;29;20032;-86
2022/10/08 02:47:50;;;;;;;4.43;3.42;;;;;;;;;;4902067;29;20040;-86
2022/10/08 02:50:19;;;;;;;3.45;2.90;;;;;;;;;;4901945;29;20041;-86
2022/10/08 02:52:47;;;;;;;3.97;3.15;;;;;;;;;;4900532;29;20051;-86
2022/10/08 02:55:38;;;;;;;4.03;2.92;;;;;;;;;;4900702;29;20517;-86
2022/10/08 02:58:07;;;;;;;3.90;2.85;;;;;;;;;;4901979;29;20127;-86
2022/10/08 03:00:37;;;;;;;5.35;3.10;;;;;;;;;;4916179;29;20032;-86
2022/10/08 03:03:33;;;;;;;3.40;3.00;;;;;;;;;;4902112;29;20409;-86
2022/10/08 03:06:05;;;;;;;4.78;3.03;;;;;;;;;;4898361;29;20216;-86
2022/10/08 03:08:33;;;;;;;6.30;3.25;;;;;;;;;;4900193;29;20055;-86
2022/10/08 03:10:59;;;;;;;5.65;3.00;;;;;;;;;;4900159;29;20131;-86
2022/10/08 03:13:26;;;;;;;4.68;3.10;;;;;;;;;;4900799;29;20147;-86
2022/10/08 03:15:53;;;;;;;5.20;3.60;;;;;;;;;;4900935;29;20486;-86
2022/10/08 03:18:19;;;;;;;4.18;3.10;;;;;;;;;;4901526;29;20712;-86
2022/10/08 03:20:50;;;;;;;7.00;3.50;;;;;;;;;;4900340;29;20032;-86
2022/10/08 03:23:17;;;;;;;6.72;3.35;;;;;;;;;;4901439;29;20033;-86
2022/10/08 03:25:42;;;;;;;6.82;3.47;;;;;;;;;;4899363;29;20040;-86
2022/10/08 03:28:08;;;;;;;6.10;3.70;;;;;;;;;;4901298;29;20083;-86
2022/10/08 03:30:33;;;;;;;5.82;3.75;;;;;;;;;;4901747;29;20043;-86
2022/10/08 03:32:59;;;;;;;6.22;3.47;;;;;;;;;;4899826;29;20139;-87
2022/10/08 03:35:25;;;;;;;7.15;3.75;;;;;;;;;;4899525;29;20046;-86
2022/10/08 03:37:52;;;;;;;4.63;3.58;;;;;;;;;;4900997;29;20037;-86
2022/10/08 03:40:18;;;;;;;6.07;3.95;;;;;;;;;;4901203;29;20561;-86
2022/10/08 03:42:44;;;;;;;6.00;3.60;;;;;;;;;;4902286;29;20135;-86
2022/10/08 03:45:09;;;;;;;6.90;4.10;;;;;;;;;;4901225;29;20060;-86
2022/10/08 03:47:35;;;;;;;6.55;3.65;;;;;;;;;;4915483;29;20044;-86
2022/10/08 03:50:00;;;;;;;6.32;3.60;;;;;;;;;;4899861;29;20044;-86
2022/10/08 03:52:26;;;;;;;5.60;3.85;;;;;;;;;;4900672;29;20040;-87
2022/10/08 03:54:51;;;;;;;6.95;4.20;;;;;;;;;;4899267;29;20410;-87
2022/10/08 03:57:17;;;;;;;5.70;3.45;;;;;;;;;;4900958;29;20044;-86
2022/10/08 03:59:42;;;;;;;4.35;3.42;;;;;;;;;;4901187;29;20033;-86
2022/10/08 04:02:07;;;;;;;6.07;3.65;;;;;;;;;;4883710;29;20043;-86
2022/10/08 04:04:33;;;;;;;6.75;3.67;;;;;;;;;;4901028;29;20139;-86
2022/10/08 04:06:58;;;;;;;4.97;3.25;;;;;;;;;;4899767;29;20044;-86
2022/10/08 04:09:24;;;;;;;6.43;3.60;;;;;;;;;;4900454;29;20115;-86
2022/10/08 04:11:49;;;;;;;5.70;3.70;;;;;;;;;;4899370;29;20045;-87
2022/10/08 04:14:15;;;;;;;7.35;3.97;;;;;;;;;;4900561;29;20047;-87
2022/10/08 04:16:40;;;;;;;5.05;3.80;;;;;;;;;;4902946;29;20168;-87
2022/10/08 04:19:06;;;;;;;7.10;3.90;;;;;;;;;;4902465;29;20044;-89
2022/10/08 04:21:31;;;;;;;5.13;3.78;;;;;;;;;;4902279;29;20037;-87
2022/10/08 04:23:56;;;;;;;7.72;4.25;;;;;;;;;;4903001;29;20040;-85
2022/10/08 04:26:22;;;;;;;8.77;4.05;;;;;;;;;;4903554;29;20123;-86
2022/10/08 04:28:47;;;;;;;7.20;4.05;;;;;;;;;;4901829;29;20041;-87
2022/10/08 04:31:16;;;;;;;7.75;3.83;;;;;;;;;;4903910;29;20060;-86
2022/10/08 04:33:42;;;;;;;8.55;4.03;;;;;;;;;;4902478;29;20047;-90
2022/10/08 04:36:22;;;;;;;6.13;3.78;;;;;;;;;;4902932;29;20070;-86
2022/10/08 04:38:48;;;;;;;6.15;4.18;;;;;;;;;;4905965;29;20055;-87
2022/10/08 04:41:22;;;;;;;6.47;3.83;;;;;;;;;;4905914;29;20060;-86
2022/10/08 04:43:48;;;;;;;10.05;4.35;;;;;;;;;;4904893;29;20124;-87
2022/10/08 04:46:16;;;;;;;11.00;3.72;;;;;;;;;;4905355;29;20082;-85
2022/10/08 04:48:53;;;;;;;4.78;3.47;;;;;;;;;;4905055;29;20079;-82
2022/10/08 04:51:22;;;;;;;9.15;4.30;;;;;;;;;;4902163;29;20049;-85
2022/10/08 04:53:47;;;;;;;7.93;4.00;;;;;;;;;;4902524;29;20055;-86
2022/10/08 04:56:18;;;;;;;6.05;3.58;;;;;;;;;;4902522;29;20383;-84
2022/10/08 04:58:44;;;;;;;5.40;3.65;;;;;;;;;;4902403;29;20051;-85
2022/10/08 05:01:12;;;;;;;6.13;3.70;;;;;;;;;;4902557;29;20028;-85
2022/10/08 05:03:40;;;;;;;5.93;3.88;;;;;;;;;;4901121;29;20029;-85
2022/10/08 05:06:07;;;;;;;6.75;3.58;;;;;;;;;;4917671;29;20075;-86
2022/10/08 05:08:33;;;;;;;7.80;3.92;;;;;;;;;;4901861;29;20056;-84
2022/10/08 05:10:59;;;;;;;7.18;3.90;;;;;;;;;;4901449;29;20059;-84
2022/10/08 05:13:24;;;;;;;8.40;4.03;;;;;;;;;;4899695;29;20045;-84
2022/10/08 05:15:50;;;;;;;9.35;3.70;;;;;;;;;;4901367;29;20044;-85
2022/10/08 05:18:15;;;;;;;6.93;3.58;;;;;;;;;;4902070;29;20076;-84
2022/10/08 05:20:40;;;;;;;7.90;4.10;;;;;;;;;;4901532;29;20052;-84
2022/10/08 05:23:06;;;;;;;5.32;3.83;;;;;;;;;;4901364;29;20057;-84
2022/10/08 05:25:33;;;;;;;10.93;5.50;;;;;;;;;;4901103;29;20041;-85
2022/10/08 05:27:58;;;;;;;5.57;4.00;;;;;;;;;;4901639;29;20040;-84
2022/10/08 05:30:24;;;;;;;6.20;4.00;;;;;;;;;;4901968;29;20051;-85
2022/10/08 05:32:50;;;;;;;6.95;4.00;;;;;;;;;;4900119;29;20051;-85
2022/10/08 05:35:15;;;;;;;8.88;4.07;;;;;;;;;;4901066;29;20044;-85
2022/10/08 05:37:41;;;;;;;5.97;3.80;;;;;;;;;;4900244;29;20046;-86
2022/10/08 05:40:06;;;;;;;6.10;3.83;;;;;;;;;;4901416;29;20036;-85
2022/10/08 05:42:32;;;;;;;5.13;3.50;;;;;;;;;;4900608;29;20450;-85
2022/10/08 05:44:57;;;;;;;5.85;3.95;;;;;;;;;;4899171;29;20024;-85
2022/10/08 05:47:23;;;;;;;7.70;3.50;;;;;;;;;;4900020;29;20378;-85
2022/10/08 05:49:48;;;;;;;7.88;3.60;;;;;;;;;;4900912;29;20139;-85
2022/10/08 05:52:14;;;;;;;7.82;4.28;;;;;;;;;;4900994;29;20040;-85
2022/10/08 05:54:39;;;;;;;7.60;3.90;;;;;;;;;;4900376;29;20104;-85
2022/10/08 05:57:05;;;;;;;8.35;3.30;;;;;;;;;;4900408;29;20040;-85
2022/10/08 05:59:30;;;;;;;7.07;3.53;;;;;;;;;;4899225;29;20051;-85
2022/10/08 06:01:55;;;;;;;7.05;3.80;;;;;;;;;;4900764;29;20044;-85
2022/10/08 06:04:21;;;;;;;7.90;4.05;;;;;;;;;;4899301;29;20482;-85
2022/10/08 06:06:47;;;;;;;7.45;4.00;;;;;;;;;;4899401;29;20040;-85
2022/10/08 06:09:15;;;;;;;6.28;4.05;;;;;;;;;;4899981;29;20073;-85
2022/10/08 06:11:41;;;;;;;6.63;3.53;;;;;;;;;;4898501;29;20515;-85
2022/10/08 06:14:09;;;;;;;6.63;3.30;;;;;;;;;;4899452;29;20032;-84
2022/10/08 06:16:35;;;;;;;7.97;3.60;;;;;;;;;;4899747;29;20036;-84
2022/10/08 06:19:02;;;;;;;6.40;3.50;;;;;;;;;;4898237;29;20046;-85
2022/10/08 06:21:28;;;;;;;6.82;3.47;;;;;;;;;;4899591;29;20516;-85
2022/10/08 06:24:02;;;;;;;7.22;3.50;;;;;;;;;;4899560;29;20036;-84
2022/10/08 06:26:40;;;;;;;5.57;3.20;;;;;;;;;;4898304;29;20040;-85
2022/10/08 06:29:09;;;;;;;9.68;3.28;;;;;;;;;;4899355;29;20504;-85
2022/10/08 06:31:35;;;;;;;5.15;3.10;;;;;;;;;;4899989;29;20390;-85
2022/10/08 06:34:02;;;;;;;5.15;3.30;;;;;;;;;;4882257;29;20039;-85
2022/10/08 06:36:29;;;;;;;8.20;3.40;;;;;;;;;;4899433;29;20404;-85
2022/10/08 06:38:56;;;;;;;5.43;3.50;;;;;;;;;;4913955;29;20044;-85
2022/10/08 06:41:23;;;;;;;7.15;3.60;;;;;;;;;;4900112;29;20036;-85
2022/10/08 06:43:48;;;;;;;6.63;4.07;;;;;;;;;;4899782;29;20029;-84
2022/10/08 06:46:14;;;;;;;7.18;3.97;;;;;;;;;;4914198;29;20416;-84
2022/10/08 06:48:40;;;;;;;7.32;4.15;;;;;;;;;;4898135;29;20044;-86
2022/10/08 06:51:11;;;;;;;6.60;3.65;;;;;;;;;;4898731;29;20040;-86
2022/10/08 06:53:37;;;;;;;7.75;3.65;;;;;;;;;;4899077;29;20033;-85
2022/10/08 06:56:06;;;;;;;6.88;4.35;;;;;;;;;;4883785;29;20119;-86
2022/10/08 06:58:35;;;;;;;11.10;5.82;;;;;;;;;;4900032;29;20047;-86
2022/10/08 07:01:07;;;;;;;5.07;3.70;;;;;;;;;;4898819;29;20493;-86
2022/10/08 07:03:34;;;;;;;7.07;3.20;;;;;;;;;;4899272;29;20050;-86
2022/10/08 07:06:07;;;;;;;5.05;3.40;;;;;;;;;;4899384;29;20032;-86
2022/10/08 07:08:34;;;;;;;5.63;3.67;;;;;;;;;;4899517;29;20120;-87
2022/10/08 07:11:09;;;;;;;4.95;3.22;;;;;;;;;;4898991;29;20040;-86
2022/10/08 07:13:36;;;;;;;5.85;3.90;;;;;;;;;;4898835;29;20095;-86
2022/10/08 07:16:05;;;;;;;6.53;3.90;;;;;;;;;;4899807;29;20119;-86
2022/10/08 07:18:32;;;;;;;9.88;4.20;;;;;;;;;;4900081;29;20040;-86
2022/10/08 07:20:58;;;;;;;6.50;4.03;;;;;;;;;;4900154;29;20536;-86
2022/10/08 07:23:23;;;;;;;8.20;3.78;;;;;;;;;;4900172;29;20040;-86
2022/10/08 07:26:04;;;;;;;9.02;4.00;;;;;;;;;;4899572;29;20044;-86
2022/10/08 07:28:33;;;;;;;6.13;4.00;;;;;;;;;;4900447;29;20040;-86
2022/10/08 07:31:04;;;;;;;8.90;3.72;;;;;;;;;;4899382;29;20107;-86
2022/10/08 07:33:29;;;;;;;8.73;4.28;;;;;;;;;;4900445;29;20044;-86
2022/10/08 07:36:03;;;;;;;6.30;4.10;;;;;;;;;;4902100;29;20048;-88
2022/10/08 07:38:29;;;;;;;6.85;3.63;;;;;;;;;;4900889;29;20041;-86
2022/10/08 07:40:55;;;;;;;5.88;3.60;;;;;;;;;;4901253;29;20084;-87
2022/10/08 07:43:20;;;;;;;7.88;4.20;;;;;;;;;;4899606;29;20405;-86
2022/10/08 07:45:46;;;;;;;6.13;3.97;;;;;;;;;;4899298;29;20461;-87
2022/10/08 07:48:11;;;;;;;6.95;4.07;;;;;;;;;;4903121;29;20047;-87
2022/10/08 07:50:37;;;;;;;9.98;4.72;;;;;;;;;;4906197;29;20036;-87
2022/10/08 07:53:02;;;;;;;10.65;5.35;;;;;;;;;;4903161;29;20041;-86
2022/10/08 07:55:28;;;;;;;9.80;4.97;;;;;;;;;;4917094;29;20068;-86
2022/10/08 07:57:53;;;;;;;6.28;3.95;;;;;;;;;;4902378;29;20028;-87
2022/10/08 08:00:19;;;;;;;7.03;4.20;;;;;;;;;;4902218;29;20043;-86
2022/10/08 08:02:46;;;;;;;6.50;4.18;;;;;;;;;;4900892;29;20040;-87
2022/10/08 08:05:12;;;;;;;7.35;3.58;;;;;;;;;;4901733;29;20041;-87
2022/10/08 08:07:37;;;;;;;5.88;4.28;;;;;;;;;;4902526;29;20032;-86
2022/10/08 08:10:03;;;;;;;8.27;4.80;;;;;;;;;;4902541;29;20076;-87
2022/10/08 08:12:29;;;;;;;7.05;4.40;;;;;;;;;;4903351;29;20033;-87
2022/10/08 08:14:54;;;;;;;8.00;4.20;;;;;;;;;;4905857;29;20036;-87
2022/10/08 08:17:20;;;;;;;11.82;4.65;;;;;;;;;;4906875;29;20111;-89
2022/10/08 08:19:45;;;;;;;10.40;5.15;;;;;;;;;;4903117;29;20070;-87
2022/10/08 08:22:10;;;;;;;8.48;4.28;;;;;;;;;;4904834;29;20120;-88
2022/10/08 08:24:36;;;;;;;10.90;4.43;;;;;;;;;;4904055;29;20047;-87
2022/10/08 08:27:01;;;;;;;6.78;3.75;;;;;;;;;;4904691;29;20028;-88
2022/10/08 08:29:27;;;;;;;7.85;4.13;;;;;;;;;;4904300;29;20028;-88
2022/10/08 08:31:52;;;;;;;6.07;3.88;;;;;;;;;;4905168;29;20452;-89
2022/10/08 08:34:23;;;;;;;9.93;3.97;;;;;;;;;;4903232;29;20036;-87
2022/10/08 08:36:52;;;;;;;6.90;4.20;;;;;;;;;;4904574;29;20036;-88
2022/10/08 08:39:23;;;;;;;6.35;4.15;;;;;;;;;;4902924;29;20032;-88
2022/10/08 08:41:55;;;;;;;5.15;3.60;;;;;;;;;;4903894;29;20075;-87
2022/10/08 08:44:23;;;;;;;6.85;4.07;;;;;;;;;;4901704;29;20036;-88
2022/10/08 08:46:58;;;;;;;7.15;3.92;;;;;;;;;;4903706;29;20048;-87
2022/10/08 08:49:36;;;;;;;7.50;5.55;;;;;;;;;;4904136;29;20127;-87
2022/10/08 08:52:03;;;;;;;7.95;4.80;;;;;;;;;;4904892;29;20043;-87
2022/10/08 08:54:29;;;;;;;7.82;4.65;;;;;;;;;;4902553;29;20043;-87
2022/10/08 08:57:11;;;;;;;7.90;3.92;;;;;;;;;;4904025;29;20112;-87
2022/10/08 08:59:42;;;;;;;7.88;3.92;;;;;;;;;;4902833;29;20111;-87
2022/10/08 09:02:25;;;;;;;7.43;4.38;;;;;;;;;;4901451;29;20036;-88
2022/10/08 09:05:01;;;;;;;8.30;4.63;;;;;;;;;;4902328;29;20071;-88
2022/10/08 09:07:32;;;;;;;6.30;4.10;;;;;;;;;;4903266;29;20044;-88
2022/10/08 09:09:58;;;;;;;13.48;4.95;;;;;;;;;;4903101;29;20044;-87
2022/10/08 09:12:26;;;;;;;6.85;4.05;;;;;;;;;;4903909;29;20076;-87
2022/10/08 09:14:58;;;;;;;5.47;3.90;;;;;;;;;;4902664;29;20036;-88
2022/10/08 09:17:30;;;;;;;4.80;3.67;;;;;;;;;;4905864;29;20045;-88
2022/10/08 09:19:57;;;;;;;6.30;3.00;;;;;;;;;;4917631;29;20040;-89
2022/10/08 09:22:24;;;;;;;7.28;3.80;;;;;;;;;;4903063;29;20040;-88
2022/10/08 09:24:59;;;;;;;9.13;4.57;;;;;;;;;;4902556;29;20035;-87
2022/10/08 09:27:27;;;;;;;8.18;4.30;;;;;;;;;;4902821;29;20410;-87
2022/10/08 09:29:52;;;;;;;11.23;4.30;;;;;;;;;;4902549;29;20040;-87
2022/10/08 09:32:20;;;;;;;7.53;4.05;;;;;;;;;;4902586;29;20052;-89
2022/10/08 09:34:47;;;;;;;7.85;3.63;;;;;;;;;;4900562;29;20086;-87
2022/10/08 09:37:22;;;;;;;6.95;3.60;;;;;;;;;;4902265;29;20093;-87
2022/10/08 09:40:25;;;;;;;6.53;3.72;;;;;;;;;;4901396;29;20044;-87
2022/10/08 09:43:06;;;;;;;7.20;3.70;;;;;;;;;;4901922;29;20059;-89
2022/10/08 09:45:37;;;;;;;6.90;3.63;;;;;;;;;;4899212;29;20097;-89
2022/10/08 09:48:26;;;;;;;6.80;3.45;;;;;;;;;;4899158;29;20063;-89
2022/10/08 09:51:15;;;;;;;7.00;3.80;;;;;;;;;;4898383;29;20401;-89
2022/10/08 09:53:47;;;;;;;7.82;3.50;;;;;;;;;;4897971;29;20765;-88
2022/10/08 09:56:14;;;;;;;6.50;3.60;;;;;;;;;;4899379;29;20516;-88
2022/10/08 09:58:56;;;;;;;5.85;3.50;;;;;;;;;;4899297;29;20028;-88
2022/10/08 10:01:23;;;;;;;6.65;3.45;;;;;;;;;;4898517;29;20043;-89
2022/10/08 10:03:53;;;;;;;6.05;4.15;;;;;;;;;;4897355;29;20060;-89
2022/10/08 10:06:36;;;;;;;6.47;3.92;;;;;;;;;;4897429;29;20044;-89
2022/10/08 10:09:30;;;;;;;7.40;3.50;;;;;;;;;;4897918;29;20044;-89
2022/10/08 10:12:02;;;;;;;6.70;3.70;;;;;;;;;;4899051;29;20269;-89
2022/10/08 10:14:51;;;;;;;5.90;3.63;;;;;;;;;;4898533;29;20045;-89
2022/10/08 10:17:24;;;;;;;7.25;3.45;;;;;;;;;;4897620;29;20273;-88
2022/10/08 10:19:58;;;;;;;7.57;3.22;;;;;;;;;;4913126;29;20071;-89
2022/10/08 10:22:42;;;;;;;7.50;3.38;;;;;;;;;;4897446;29;20519;-89
2022/10/08 10:25:22;;;;;;;6.45;3.30;;;;;;;;;;4898721;29;20056;-89
2022/10/08 10:27:57;;;;;;;6.30;2.88;;;;;;;;;;4898446;29;20041;-89
2022/10/08 10:30:24;;;;;;;6.03;2.85;;;;;;;;;;4898404;29;20067;-89
2022/10/08 10:33:01;;;;;;;6.35;2.70;;;;;;;;;;4898444;29;20037;-89
2022/10/08 10:35:29;;;;;;;4.78;2.50;;;;;;;;;;4897774;29;20489;-89
2022/10/08 10:38:01;;;;;;;6.65;2.70;;;;;;;;;;4898107;29;20040;-89
2022/10/08 10:40:29;;;;;;;5.38;2.90;;;;;;;;;;4897979;29;20044;-90
2022/10/08 10:43:32;;;;;;;9.55;2.40;;;;;;;;;;4897699;29;20505;-88
2022/10/08 10:46:23;;;;;;;9.17;2.80;;;;;;;;;;4897887;29;20044;-90
2022/10/08 10:48:49;;;;;;;7.15;2.60;;;;;;;;;;4880141;29;20049;-89
2022/10/08 10:51:18;;;;;;;7.35;2.40;;;;;;;;;;4896471;29;20096;-89
2022/10/08 10:53:52;;;;;;;7.13;2.55;;;;;;;;;;4897999;29;20041;-89
2022/10/08 10:56:20;;;;;;;6.00;2.30;;;;;;;;;;4912042;29;20068;-89
2022/10/08 10:59:06;;;;;;;10.38;2.30;;;;;;;;;;4896434;29;20039;-89
2022/10/08 11:01:54;;;;;;;5.90;1.90;;;;;;;;;;4912140;29;20040;-89
2022/10/08 11:04:45;;;;;;;6.35;2.30;;;;;;;;;;4896419;29;20482;-89
2022/10/08 11:07:37;;;;;;;4.65;2.20;;;;;;;;;;4897661;29;20556;-89
2022/10/08 11:10:06;;;;;;;8.10;2.45;;;;;;;;;;4896367;29;20490;-90
2022/10/08 11:12:46;;;;;;;10.65;2.33;;;;;;;;;;4896990;29;20052;-89
2022/10/08 11:15:32;;;;;;;8.90;2.17;;;;;;;;;;4897307;29;20037;-90
2022/10/08 11:18:17;;;;;;;9.73;2.20;;;;;;;;;;4893881;29;20509;-89
2022/10/08 11:21:05;;;;;;;10.27;2.40;;;;;;;;;;4897490;29;20044;-89
2022/10/08 11:23:49;;;;;;;9.85;2.28;;;;;;;;;;4894097;29;20144;-89
2022/10/08 11:26:39;;;;;;;11.07;2.35;;;;;;;;;;4911532;29;20220;-89
2022/10/08 11:29:30;;;;;;;4.35;2.28;;;;;;;;;;4897235;29;20602;-88
2022/10/08 11:31:56;;;;;;;7.10;2.35;;;;;;;;;;4911682;29;20041;-89
2022/10/08 11:34:32;;;;;;;4.43;2.10;;;;;;;;;;4896908;29;20056;-89
2022/10/08 11:37:16;;;;;;;10.60;2.58;;;;;;;;;;4897206;29;20086;-91
2022/10/08 11:39:44;;;;;;;;;;;;;;;;;;4880787;29;20096;-89
2022/10/08 11:42:16;;;;;;;7.65;2.60;;;;;;;;;;4896838;29;19954;-90
2022/10/08 11:44:42;;;;;;;7.47;2.90;;;;;;;;;;4911261;29;20509;-90
2022/10/08 11:47:33;;;;;;;6.22;2.60;;;;;;;;;;4896388;29;20047;-90
2022/10/08 11:49:59;;;;;;;11.63;2.85;;;;;;;;;;4895881;29;20040;-89
2022/10/08 11:52:29;;;;;;;6.70;3.20;;;;;;;;;;4897396;29;20039;-89
2022/10/08 11:54:56;;;;;;;6.45;2.78;;;;;;;;;;4896760;29;20041;-90
2022/10/08 11:57:33;;;;;;;7.30;3.20;;;;;;;;;;4895660;29;20040;-89
2022/10/08 12:00:15;;;;;;;8.65;3.00;;;;;;;;;;4896974;29;20470;-90
2022/10/08 12:02:42;;;;;;;7.80;3.00;;;;;;;;;;4896988;29;20784;-90
2022/10/08 12:05:21;;;;;;;7.25;2.78;;;;;;;;;;4896709;29;20025;-89
2022/10/08 12:07:49;;;;;;;5.97;3.08;;;;;;;;;;4896861;29;20041;-90
2022/10/08 12:10:17;;;;;;;12.10;3.30;;;;;;;;;;4895753;29;20506;-90
2022/10/08 12:12:49;;;;;;;9.82;3.28;;;;;;;;;;4895097;29;20044;-89
2022/10/08 12:15:23;;;;;;;9.68;2.70;;;;;;;;;;4896705;29;20055;-90
2022/10/08 12:17:51;;;;;;;7.80;2.78;;;;;;;;;;4896853;29;20033;-89
2022/10/08 12:20:18;;;;;;;9.00;3.03;;;;;;;;;;4896870;29;20024;-90
2022/10/08 12:23:05;;;;;;;6.70;2.92;;;;;;;;;;4895468;29;20045;-90
2022/10/08 12:25:37;;;;;;;9.82;3.53;;;;;;;;;;4896983;29;20040;-90
2022/10/08 12:28:18;;;;;;;5.13;2.95;;;;;;;;;;4896691;29;20037;-89
2022/10/08 12:30:48;;;;;;;8.75;2.70;;;;;;;;;;4896844;29;20037;-89
2022/10/08 12:33:15;;;;;;;10.75;2.90;;;;;;;;;;4895405;29;20041;-89
2022/10/08 12:36:02;;;;;;;9.25;3.13;;;;;;;;;;4895206;29;20104;-89
2022/10/08 12:38:59;;;;;;;9.32;2.80;;;;;;;;;;4896750;29;20164;-90
2022/10/08 12:41:31;;;;;;;8.07;3.15;;;;;;;;;;4896616;29;20043;-90
2022/10/08 12:44:06;;;;;;;15.52;3.78;;;;;;;;;;4896511;29;20037;-89
2022/10/08 12:47:09;;;;;;;10.63;3.05;;;;;;;;;;4896800;29;20044;-90
2022/10/08 12:49:42;;;;;;;10.63;2.90;;;;;;;;;;4911064;29;20139;-89
2022/10/08 12:52:11;;;;;;;12.02;3.05;;;;;;;;;;4896729;29;20088;-90
2022/10/08 12:54:47;;;;;;;7.13;3.20;;;;;;;;;;4896199;29;20071;-90
2022/10/08 12:57:19;;;;;;;10.85;3.30;;;;;;;;;;4896727;29;20386;-90
2022/10/08 12:59:46;;;;;;;8.73;3.20;;;;;;;;;;4900015;29;20079;-90
2022/10/08 13:02:35;;;;;;;9.90;2.85;;;;;;;;;;4898600;29;20068;-90
2022/10/08 13:05:05;;;;;;;10.43;2.90;;;;;;;;;;4898439;29;20076;-89
2022/10/08 13:07:33;;;;;;;8.00;3.40;;;;;;;;;;4900182;29;20051;-90
2022/10/08 13:10:01;;;;;;;6.93;3.60;;;;;;;;;;4898493;29;20103;-89
2022/10/08 13:12:27;;;;;;;8.43;3.80;;;;;;;;;;4899390;29;20486;-90
2022/10/08 13:15:07;;;;;;;9.55;3.58;;;;;;;;;;4899561;29;20048;-90
2022/10/08 13:17:34;;;;;;;9.05;3.42;;;;;;;;;;4899705;29;20060;-90
2022/10/08 13:20:11;;;;;;;8.23;3.33;;;;;;;;;;4898393;29;20178;-89
2022/10/08 13:22:36;;;;;;;6.82;3.30;;;;;;;;;;4899720;29;20051;-88
2022/10/08 13:25:03;;;;;;;10.32;3.53;;;;;;;;;;4898072;29;20040;-90
2022/10/08 13:27:31;;;;;;;9.88;3.25;;;;;;;;;;4898268;29;20036;-90
2022/10/08 13:30:21;;;;;;;9.82;3.50;;;;;;;;;;4899377;29;20064;-90
2022/10/08 13:32:47;;;;;;;6.30;3.58;;;;;;;;;;4899424;29;20047;-90
2022/10/08 13:35:21;;;;;;;9.55;3.67;;;;;;;;;;4899096;29;20032;-90
2022/10/08 13:37:51;;;;;;;8.75;4.07;;;;;;;;;;4899425;29;20081;-90
2022/10/08 13:40:19;;;;;;;9.90;4.40;;;;;;;;;;4898133;29;20045;-90
2022/10/08 13:42:49;;;;;;;8.13;4.50;;;;;;;;;;4913491;29;20474;-89
2022/10/08 13:45:20;;;;;;;12.80;4.75;;;;;;;;;;4897676;29;20524;-89
2022/10/08 13:47:46;;;;;;;12.25;4.68;;;;;;;;;;4897896;29;20541;-90
2022/10/08 13:50:12;;;;;;;7.60;4.20;;;;;;;;;;4899322;29;20497;-90
2022/10/08 13:52:43;;;;;;;9.02;4.25;;;;;;;;;;4897624;29;20036;-89
2022/10/08 13:55:35;;;;;;;8.63;4.10;;;;;;;;;;4898755;29;20402;-88
2022/10/08 13:58:03;;;;;;;10.30;4.03;;;;;;;;;;4897976;29;20131;-89
2022/10/08 14:00:30;;;;;;;10.90;4.38;;;;;;;;;;4898932;29;20055;-89
2022/10/08 14:02:56;;;;;;;7.05;3.95;;;;;;;;;;4897685;29;20035;-89
2022/10/08 14:05:22;;;;;;;9.45;4.40;;;;;;;;;;4898607;29;20045;-88
2022/10/08 14:07:59;;;;;;;8.68;3.67;;;;;;;;;;4898632;29;20144;-89
2022/10/08 14:10:25;;;;;;;6.68;3.50;;;;;;;;;;4897099;29;20044;-89
2022/10/08 14:12:50;;;;;;;11.23;3.58;;;;;;;;;;4898674;29;20041;-89
2022/10/08 14:15:16;;;;;;;9.80;3.65;;;;;;;;;;4898489;29;20041;-89
2022/10/08 14:17:42;;;;;;;7.80;3.30;;;;;;;;;;4898452;29;20044;-89
2022/10/08 14:20:08;;;;;;;10.15;3.67;;;;;;;;;;4897158;29;20028;-89
2022/10/08 14:22:37;;;;;;;7.22;3.75;;;;;;;;;;4898442;29;20378;-89
2022/10/08 14:25:13;;;;;;;6.53;3.67;;;;;;;;;;4898204;29;20044;-89
2022/10/08 14:27:39;;;;;;;8.95;3.63;;;;;;;;;;4897136;29;20060;-88
2022/10/08 14:30:05;;;;;;;10.60;3.60;;;;;;;;;;4912967;29;20082;-89
2022/10/08 14:32:30;;;;;;;6.80;3.20;;;;;;;;;;4898429;29;20056;-89
2022/10/08 14:34:55;;;;;;;9.00;3.50;;;;;;;;;;4898085;29;20425;-89
2022/10/08 14:37:21;;;;;;;10.02;3.60;;;;;;;;;;4898206;29;20049;-90
2022/10/08 14:39:46;;;;;;;6.22;3.70;;;;;;;;;;4898213;29;20052;-88
2022/10/08 14:42:12;;;;;;;13.13;3.42;;;;;;;;;;4898094;29;20127;-89
2022/10/08 14:44:37;;;;;;;10.05;3.45;;;;;;;;;;4898136;29;20111;-88
2022/10/08 14:47:03;;;;;;;11.02;3.47;;;;;;;;;;4898225;29;20516;-89
2022/10/08 14:49:28;;;;;;;9.93;3.60;;;;;;;;;;4897924;29;20478;-89
2022/10/08 14:51:54;;;;;;;12.65;3.97;;;;;;;;;;4896608;29;20033;-88
2022/10/08 14:54:19;;;;;;;12.18;4.30;;;;;;;;;;4896701;29;20403;-89
2022/10/08 14:56:45;;;;;;;12.95;4.20;;;;;;;;;;4897828;29;20402;-89
2022/10/08 14:59:11;;;;;;;10.60;4.68;;;;;;;;;;4897844;29;20072;-89
2022/10/08 15:01:36;;;;;;;7.45;4.15;;;;;;;;;;4896419;29;20087;-89
2022/10/08 15:04:03;;;;;;;12.85;3.97;;;;;;;;;;4897590;29;20029;-89
2022/10/08 15:06:29;;;;;;;10.88;4.57;;;;;;;;;;4896649;29;20080;-89